sensor_id;sensor_type;location;lat;lon;timestamp;pressure;altitude;pressure_sealevel;temperature;humidity
14885;BME280;7534;50.762;7.000;2022-09-09T00:02:42;150579.00;;;16.88;89.95
14885;BME280;7534;50.762;7.000;2022-09-09T00:09:19;150636.94;;;17.10;91.22
14885;BME280;7534;50.762;7.000;2022-09-09T00:11:52;150623.75;;;17.05;91.66
14885;BME280;7534;50.762;7.000;2022-09-09T00:14:56;150613.22;;;17.01;91.94
14885;BME280;7534;50.762;7.000;2022-09-09T00:23:37;150518.47;;;16.65;93.37
14885;BME280;7534;50.762;7.000;2022-09-09T00:26:40;150523.75;;;16.67;94.59
14885;BME280;7534;50.762;7.000;2022-09-09T00:31:34;150492.13;;;16.55;95.69
14885;BME280;7534;50.762;7.000;2022-09-09T00:34:19;150469.75;;;16.46;96.30
14885;BME280;7534;50.762;7.000;2022-09-09T00:36:50;150465.84;;;16.45;97.15
14885;BME280;7534;50.762;7.000;2022-09-09T00:39:37;150440.84;;;16.35;97.95
14885;BME280;7534;50.762;7.000;2022-09-09T00:42:26;150447.44;;;16.37;98.41
14885;BME280;7534;50.762;7.000;2022-09-09T00:45:12;150421.13;;;16.27;98.72
14885;BME280;7534;50.762;7.000;2022-09-09T00:47:50;150393.50;;;16.17;99.33
14885;BME280;7534;50.762;7.000;2022-09-09T00:54:17;150356.69;;;16.02;99.91
14885;BME280;7534;50.762;7.000;2022-09-09T00:57:26;150315.94;;;15.87;100.00
14885;BME280;7534;50.762;7.000;2022-09-09T01:03:19;150322.47;;;15.89;100.00
14885;BME280;7534;50.762;7.000;2022-09-09T01:09:02;150346.16;;;15.98;100.00
14885;BME280;7534;50.762;7.000;2022-09-09T01:11:49;150397.44;;;16.18;99.66
14885;BME280;7534;50.762;7.000;2022-09-09T01:22:40;150404.03;;;16.21;98.18
14885;BME280;7534;50.762;7.000;2022-09-09T01:26:03;150426.41;;;16.29;97.56
14885;BME280;7534;50.762;7.000;2022-09-09T01:28:34;150398.75;;;16.19;97.67
14885;BME280;7534;50.762;7.000;2022-09-09T01:31:05;150409.25;;;16.23;97.64
14885;BME280;7534;50.762;7.000;2022-09-09T01:33:32;150432.94;;;16.32;97.63
14885;BME280;7534;50.762;7.000;2022-09-09T01:36:10;150435.56;;;16.33;96.97
14885;BME280;7534;50.762;7.000;2022-09-09T01:38:38;150423.75;;;16.28;96.96
14885;BME280;7534;50.762;7.000;2022-09-09T01:41:04;150400.09;;;16.19;97.27
14885;BME280;7534;50.762;7.000;2022-09-09T01:43:30;150436.88;;;16.33;97.67
14885;BME280;7534;50.762;7.000;2022-09-09T01:46:00;150460.56;;;16.42;97.25
14885;BME280;7534;50.762;7.000;2022-09-09T01:48:28;150447.44;;;16.37;97.00
14885;BME280;7534;50.762;7.000;2022-09-09T01:50:53;150464.53;;;16.44;97.25
14885;BME280;7534;50.762;7.000;2022-09-09T01:53:21;150468.47;;;16.46;97.25
14885;BME280;7534;50.762;7.000;2022-09-09T01:56:02;150490.78;;;16.54;96.74
14885;BME280;7534;50.762;7.000;2022-09-09T01:59:13;150510.63;;;16.62;96.57
14885;BME280;7534;50.762;7.000;2022-09-09T02:04:47;150538.22;;;16.72;95.91
14885;BME280;7534;50.762;7.000;2022-09-09T02:07:38;150539.53;;;16.73;95.11
14885;BME280;7534;50.762;7.000;2022-09-09T02:10:20;150527.72;;;16.68;95.29
14885;BME280;7534;50.762;7.000;2022-09-09T02:12:55;150525.06;;;16.67;95.15
14885;BME280;7534;50.762;7.000;2022-09-09T02:18:27;150579.00;;;16.88;94.88
14885;BME280;7534;50.762;7.000;2022-09-09T02:20:57;150568.50;;;16.84;94.24
14885;BME280;7534;50.762;7.000;2022-09-09T02:23:24;150590.88;;;16.93;94.22
14885;BME280;7534;50.762;7.000;2022-09-09T02:25:53;150623.75;;;17.05;93.81
14885;BME280;7534;50.762;7.000;2022-09-09T02:28:24;150627.69;;;17.07;93.33
14885;BME280;7534;50.762;7.000;2022-09-09T02:30:51;150652.72;;;17.16;92.68
14885;BME280;7534;50.762;7.000;2022-09-09T02:33:27;150692.19;;;17.32;92.58
14885;BME280;7534;50.762;7.000;2022-09-09T02:35:56;150672.44;;;17.24;92.26
14885;BME280;7534;50.762;7.000;2022-09-09T02:38:30;150643.47;;;17.13;92.14
14885;BME280;7534;50.762;7.000;2022-09-09T02:40:57;150681.63;;;17.28;92.12
14885;BME280;7534;50.762;7.000;2022-09-09T02:43:24;150654.03;;;17.17;92.24
14885;BME280;7534;50.762;7.000;2022-09-09T02:49:04;150701.38;;;17.35;91.36
14885;BME280;7534;50.762;7.000;2022-09-09T02:51:54;150705.31;;;17.37;91.28
14885;BME280;7534;50.762;7.000;2022-09-09T02:54:35;150718.53;;;17.42;91.10
14885;BME280;7534;50.762;7.000;2022-09-09T02:57:16;150721.16;;;17.43;90.65
14885;BME280;7534;50.762;7.000;2022-09-09T02:59:44;150734.31;;;17.48;90.23
14885;BME280;7534;50.762;7.000;2022-09-09T03:02:11;150725.06;;;17.44;89.85
14885;BME280;7534;50.762;7.000;2022-09-09T03:04:39;150763.28;;;17.59;89.66
14885;BME280;7534;50.762;7.000;2022-09-09T03:07:05;150758.00;;;17.57;88.67
14885;BME280;7534;50.762;7.000;2022-09-09T03:09:31;150759.31;;;17.58;88.92
14885;BME280;7534;50.762;7.000;2022-09-09T03:11:58;150755.38;;;17.56;88.21
14885;BME280;7534;50.762;7.000;2022-09-09T03:14:24;150732.97;;;17.47;88.05
14885;BME280;7534;50.762;7.000;2022-09-09T03:16:54;150736.94;;;17.49;88.19
14885;BME280;7534;50.762;7.000;2022-09-09T03:19:21;150775.16;;;17.64;87.72
14885;BME280;7534;50.762;7.000;2022-09-09T03:21:47;150754.03;;;17.55;87.73
14885;BME280;7534;50.762;7.000;2022-09-09T03:24:14;150758.00;;;17.57;87.92
14885;BME280;7534;50.762;7.000;2022-09-09T03:26:41;150736.94;;;17.49;88.27
14885;BME280;7534;50.762;7.000;2022-09-09T03:29:11;150709.28;;;17.38;89.01
14885;BME280;7534;50.762;7.000;2022-09-09T03:31:39;150702.69;;;17.36;89.11
14885;BME280;7534;50.762;7.000;2022-09-09T03:34:07;150700.09;;;17.35;89.16
14885;BME280;7534;50.762;7.000;2022-09-09T03:36:33;150709.28;;;17.38;89.31
14885;BME280;7534;50.762;7.000;2022-09-09T03:38:59;150673.75;;;17.25;89.07
14885;BME280;7534;50.762;7.000;2022-09-09T03:41:26;150688.22;;;17.30;88.86
14885;BME280;7534;50.762;7.000;2022-09-09T03:43:52;150689.53;;;17.31;88.92
14885;BME280;7534;50.762;7.000;2022-09-09T03:46:23;150707.97;;;17.38;88.69
14885;BME280;7534;50.762;7.000;2022-09-09T03:48:50;150705.31;;;17.37;88.49
14885;BME280;7534;50.762;7.000;2022-09-09T03:51:16;150677.72;;;17.26;88.97
14885;BME280;7534;50.762;7.000;2022-09-09T03:53:42;150689.53;;;17.31;88.70
14885;BME280;7534;50.762;7.000;2022-09-09T03:56:08;150714.56;;;17.40;88.37
14885;BME280;7534;50.762;7.000;2022-09-09T03:58:36;150729.03;;;17.46;88.22
14885;BME280;7534;50.762;7.000;2022-09-09T04:01:09;150747.44;;;17.53;87.80
14885;BME280;7534;50.762;7.000;2022-09-09T04:03:35;150771.19;;;17.62;87.86
14885;BME280;7534;50.762;7.000;2022-09-09T04:06:03;150775.16;;;17.64;87.50
14885;BME280;7534;50.762;7.000;2022-09-09T04:08:30;150772.53;;;17.63;87.76
14885;BME280;7534;50.762;7.000;2022-09-09T04:10:57;150781.75;;;17.66;87.41
14885;BME280;7534;50.762;7.000;2022-09-09T04:13:24;150731.66;;;17.47;87.69
14885;BME280;7534;50.762;7.000;2022-09-09T04:15:55;150764.56;;;17.60;87.88
14885;BME280;7534;50.762;7.000;2022-09-09T04:18:22;150755.38;;;17.56;88.29
14885;BME280;7534;50.762;7.000;2022-09-09T04:20:50;150752.72;;;17.55;88.41
14885;BME280;7534;50.762;7.000;2022-09-09T04:23:16;150789.63;;;17.69;88.29
14885;BME280;7534;50.762;7.000;2022-09-09T04:25:46;150765.88;;;17.60;87.90
14885;BME280;7534;50.762;7.000;2022-09-09T04:28:13;150763.28;;;17.59;88.04
14885;BME280;7534;50.762;7.000;2022-09-09T04:30:39;150734.31;;;17.48;87.50
14885;BME280;7534;50.762;7.000;2022-09-09T04:33:06;150760.66;;;17.58;87.45
14885;BME280;7534;50.762;7.000;2022-09-09T04:35:32;150768.50;;;17.61;87.16
14885;BME280;7534;50.762;7.000;2022-09-09T04:37:58;150772.53;;;17.63;87.27
14885;BME280;7534;50.762;7.000;2022-09-09T04:40:24;150760.66;;;17.58;87.06
14885;BME280;7534;50.762;7.000;2022-09-09T04:42:51;150796.22;;;17.72;86.97
14885;BME280;7534;50.762;7.000;2022-09-09T04:45:17;150797.53;;;17.72;86.63
14885;BME280;7534;50.762;7.000;2022-09-09T04:47:43;150793.59;;;17.71;86.63
14885;BME280;7534;50.762;7.000;2022-09-09T04:50:09;150789.63;;;17.69;86.53
14885;BME280;7534;50.762;7.000;2022-09-09T04:52:35;150804.13;;;17.75;86.93
14885;BME280;7534;50.762;7.000;2022-09-09T04:55:01;150797.53;;;17.72;86.44
14885;BME280;7534;50.762;7.000;2022-09-09T04:57:27;150783.06;;;17.67;86.74
14885;BME280;7534;50.762;7.000;2022-09-09T04:59:54;150754.03;;;17.55;87.02
14885;BME280;7534;50.762;7.000;2022-09-09T05:02:20;150735.63;;;17.48;86.88
14885;BME280;7534;50.762;7.000;2022-09-09T05:04:45;150758.00;;;17.57;87.13
14885;BME280;7534;50.762;7.000;2022-09-09T05:07:11;150750.09;;;17.54;86.99
14885;BME280;7534;50.762;7.000;2022-09-09T05:09:37;150735.63;;;17.48;87.03
14885;BME280;7534;50.762;7.000;2022-09-09T05:12:02;150727.69;;;17.45;87.80
14885;BME280;7534;50.762;7.000;2022-09-09T05:14:29;150743.50;;;17.51;88.06
14885;BME280;7534;50.762;7.000;2022-09-09T05:16:55;150746.13;;;17.52;87.83
14885;BME280;7534;50.762;7.000;2022-09-09T05:19:21;150771.19;;;17.62;87.98
14885;BME280;7534;50.762;7.000;2022-09-09T05:21:47;150735.63;;;17.48;87.55
14885;BME280;7534;50.762;7.000;2022-09-09T05:24:13;150764.56;;;17.60;87.04
14885;BME280;7534;50.762;7.000;2022-09-09T05:26:39;150785.66;;;17.68;86.97
14885;BME280;7534;50.762;7.000;2022-09-09T05:29:04;150790.94;;;17.70;86.31
14885;BME280;7534;50.762;7.000;2022-09-09T05:31:31;150781.75;;;17.66;86.12
14885;BME280;7534;50.762;7.000;2022-09-09T05:33:58;150805.47;;;17.75;85.77
14885;BME280;7534;50.762;7.000;2022-09-09T05:36:24;150814.66;;;17.79;85.88
14885;BME280;7534;50.762;7.000;2022-09-09T05:38:51;150790.94;;;17.70;85.54
14885;BME280;7534;50.762;7.000;2022-09-09T05:41:19;150797.53;;;17.72;85.36
14885;BME280;7534;50.762;7.000;2022-09-09T05:43:46;150829.13;;;17.84;85.04
14885;BME280;7534;50.762;7.000;2022-09-09T05:46:21;150823.88;;;17.82;84.95
14885;BME280;7534;50.762;7.000;2022-09-09T05:48:48;150806.72;;;17.76;85.35
14885;BME280;7534;50.762;7.000;2022-09-09T05:51:21;150804.13;;;17.75;85.10
14885;BME280;7534;50.762;7.000;2022-09-09T05:53:48;150789.63;;;17.69;85.51
14885;BME280;7534;50.762;7.000;2022-09-09T05:56:23;150833.06;;;17.86;84.85
14885;BME280;7534;50.762;7.000;2022-09-09T05:58:50;150844.97;;;17.90;84.47
14885;BME280;7534;50.762;7.000;2022-09-09T06:01:24;150852.81;;;17.93;84.77
14885;BME280;7534;50.762;7.000;2022-09-09T06:03:51;150847.59;;;17.91;85.09
14885;BME280;7534;50.762;7.000;2022-09-09T06:06:33;150900.25;;;18.12;84.11
14885;BME280;7534;50.762;7.000;2022-09-09T06:09:02;150947.69;;;18.30;83.29
14885;BME280;7534;50.762;7.000;2022-09-09T06:11:32;150956.88;;;18.34;82.67
14885;BME280;7534;50.762;7.000;2022-09-09T06:13:58;150996.38;;;18.49;82.03
14885;BME280;7534;50.762;7.000;2022-09-09T06:16:27;151086.03;;;18.83;80.63
14885;BME280;7534;50.762;7.000;2022-09-09T06:18:54;151151.94;;;19.09;80.02
14885;BME280;7534;50.762;7.000;2022-09-09T06:21:28;151194.13;;;19.25;77.74
14885;BME280;7534;50.762;7.000;2022-09-09T06:23:56;151312.81;;;19.70;76.04
14885;BME280;7534;50.762;7.000;2022-09-09T06:26:26;151405.16;;;20.06;74.41
14885;BME280;7534;50.762;7.000;2022-09-09T06:28:54;151638.78;;;20.95;72.40
14885;BME280;7534;50.762;7.000;2022-09-09T06:31:23;152111.84;;;22.77;63.98
14885;BME280;7534;50.762;7.000;2022-09-09T06:33:51;152479.50;;;24.18;58.20
14885;BME280;7534;50.762;7.000;2022-09-09T06:36:24;152696.72;;;25.01;52.62
14885;BME280;7534;50.762;7.000;2022-09-09T06:38:50;152772.16;;;25.30;50.29
14885;BME280;7534;50.762;7.000;2022-09-09T06:41:18;152680.84;;;24.95;51.20
14885;BME280;7534;50.762;7.000;2022-09-09T06:43:48;152782.78;;;25.34;50.43
14885;BME280;7534;50.762;7.000;2022-09-09T06:46:16;152941.78;;;25.95;48.92
14885;BME280;7534;50.762;7.000;2022-09-09T06:48:44;153386.09;;;27.64;44.56
14885;BME280;7534;50.762;7.000;2022-09-09T06:51:36;153850.84;;;29.42;39.39
14885;BME280;7534;50.762;7.000;2022-09-09T06:54:03;153910.59;;;29.65;37.96
14885;BME280;7534;50.762;7.000;2022-09-09T06:56:36;153963.72;;;29.85;37.15
14885;BME280;7534;50.762;7.000;2022-09-09T06:59:05;153796.31;;;29.21;37.28
14885;BME280;7534;50.762;7.000;2022-09-09T07:01:37;153771.06;;;29.11;37.78
14885;BME280;7534;50.762;7.000;2022-09-09T07:04:04;153872.09;;;29.50;37.63
14885;BME280;7534;50.762;7.000;2022-09-09T07:06:40;153881.38;;;29.53;35.81
14885;BME280;7534;50.762;7.000;2022-09-09T07:09:09;153995.69;;;29.97;36.00
14885;BME280;7534;50.762;7.000;2022-09-09T07:11:45;154004.94;;;30.01;35.38
14885;BME280;7534;50.762;7.000;2022-09-09T07:14:12;154421.22;;;31.59;32.99
14885;BME280;7534;50.762;7.000;2022-09-09T07:16:42;154153.84;;;30.57;33.19
14885;BME280;7534;50.762;7.000;2022-09-09T07:19:09;154095.34;;;30.35;34.67
14885;BME280;7534;50.762;7.000;2022-09-09T07:21:34;154451.81;;;31.71;32.27
14885;BME280;7534;50.762;7.000;2022-09-09T07:24:01;154672.78;;;32.55;31.27
14885;BME280;7534;50.762;7.000;2022-09-09T07:26:30;154896.59;;;33.40;29.25
14885;BME280;7534;50.762;7.000;2022-09-09T07:28:56;155245.78;;;34.73;28.00
14885;BME280;7534;50.762;7.000;2022-09-09T07:31:32;155235.09;;;34.69;27.29
14885;BME280;7534;50.762;7.000;2022-09-09T07:34:00;155213.78;;;34.61;27.32
14885;BME280;7534;50.762;7.000;2022-09-09T07:36:35;155231.09;;;34.67;26.75
14885;BME280;7534;50.762;7.000;2022-09-09T07:39:08;155076.44;;;34.08;28.05
14885;BME280;7534;50.762;7.000;2022-09-09T07:41:46;154582.28;;;32.20;30.52
14885;BME280;7534;50.762;7.000;2022-09-09T07:49:35;153107.53;;;26.58;38.34
14885;BME280;7534;50.762;7.000;2022-09-09T07:59:09;152482.16;;;24.19;45.84
14885;BME280;7534;50.762;7.000;2022-09-09T08:02:02;152168.66;;;22.99;47.16
14885;BME280;7534;50.762;7.000;2022-09-09T08:04:30;152154.13;;;22.93;49.07
14885;BME280;7534;50.762;7.000;2022-09-09T08:06:59;152143.53;;;22.89;49.86
14885;BME280;7534;50.762;7.000;2022-09-09T08:09:37;152003.41;;;22.35;48.97
14885;BME280;7534;50.762;7.000;2022-09-09T08:12:03;151904.28;;;21.97;50.06
14885;BME280;7534;50.762;7.000;2022-09-09T08:14:29;151984.91;;;22.28;51.06
14885;BME280;7534;50.762;7.000;2022-09-09T08:16:55;152150.16;;;22.92;49.34
14885;BME280;7534;50.762;7.000;2022-09-09T08:19:21;152330.03;;;23.61;49.02
14885;BME280;7534;50.762;7.000;2022-09-09T08:21:48;152792.06;;;25.37;45.58
14885;BME280;7534;50.762;7.000;2022-09-09T08:24:14;153343.59;;;27.48;39.53
14885;BME280;7534;50.762;7.000;2022-09-09T08:26:46;153561.25;;;28.31;38.37
14885;BME280;7534;50.762;7.000;2022-09-09T08:29:16;153622.31;;;28.55;36.77
14885;BME280;7534;50.762;7.000;2022-09-09T08:31:49;153537.38;;;28.22;36.17
14885;BME280;7534;50.762;7.000;2022-09-09T08:34:17;153433.81;;;27.83;36.62
14885;BME280;7534;50.762;7.000;2022-09-09T08:36:46;153143.28;;;26.72;38.68
14885;BME280;7534;50.762;7.000;2022-09-09T08:39:15;152981.56;;;26.10;39.47
14885;BME280;7534;50.762;7.000;2022-09-09T08:50:31;152744.38;;;25.19;41.75
14885;BME280;7534;50.762;7.000;2022-09-09T08:53:20;152605.28;;;24.66;43.11
14885;BME280;7534;50.762;7.000;2022-09-09T08:55:56;152635.75;;;24.78;43.03
14885;BME280;7534;50.762;7.000;2022-09-09T08:58:42;152594.72;;;24.62;42.70
14885;BME280;7534;50.762;7.000;2022-09-09T09:04:29;152688.75;;;24.98;42.93
14885;BME280;7534;50.762;7.000;2022-09-09T09:12:54;152541.75;;;24.42;43.93
14885;BME280;7534;50.762;7.000;2022-09-09T09:15:30;152405.44;;;23.89;45.20
14885;BME280;7534;50.762;7.000;2022-09-09T09:18:15;152299.63;;;23.49;45.93
14885;BME280;7534;50.762;7.000;2022-09-09T09:23:23;152304.94;;;23.51;45.76
14885;BME280;7534;50.762;7.000;2022-09-09T09:25:58;152361.78;;;23.73;45.92
14885;BME280;7534;50.762;7.000;2022-09-09T09:28:29;152409.44;;;23.91;46.00
14885;BME280;7534;50.762;7.000;2022-09-09T09:31:04;152392.19;;;23.84;45.03
14885;BME280;7534;50.762;7.000;2022-09-09T09:36:09;152860.97;;;25.64;43.20
14885;BME280;7534;50.762;7.000;2022-09-09T09:38:37;153091.56;;;26.52;42.10
14885;BME280;7534;50.762;7.000;2022-09-09T09:41:14;152962.97;;;26.03;38.82
14885;BME280;7534;50.762;7.000;2022-09-09T09:50:32;152615.91;;;24.70;40.91
14885;BME280;7534;50.762;7.000;2022-09-09T09:53:45;152549.72;;;24.45;41.14
14885;BME280;7534;50.762;7.000;2022-09-09T09:56:27;152704.69;;;25.04;39.37
14885;BME280;7534;50.762;7.000;2022-09-09T10:02:38;152911.31;;;25.83;39.01
14885;BME280;7534;50.762;7.000;2022-09-09T10:05:27;152733.78;;;25.15;39.69
14885;BME280;7534;50.762;7.000;2022-09-09T10:08:21;152825.16;;;25.50;39.77
14885;BME280;7534;50.762;7.000;2022-09-09T10:11:30;152972.28;;;26.06;39.27
14885;BME280;7534;50.762;7.000;2022-09-09T10:14:49;152923.22;;;25.88;39.66
14885;BME280;7534;50.762;7.000;2022-09-09T10:33:51;152340.63;;;23.65;44.06
14885;BME280;7534;50.762;7.000;2022-09-09T10:36:53;152453.09;;;24.08;43.99
14885;BME280;7534;50.762;7.000;2022-09-09T10:53:35;152647.66;;;24.82;41.80
14885;BME280;7534;50.762;7.000;2022-09-09T10:56:23;152576.19;;;24.55;42.24
14885;BME280;7534;50.762;7.000;2022-09-09T10:59:09;152623.81;;;24.73;41.16
14885;BME280;7534;50.762;7.000;2022-09-09T11:01:44;152680.84;;;24.95;42.02
14885;BME280;7534;50.762;7.000;2022-09-09T11:08:03;152741.75;;;25.18;39.60
14885;BME280;7534;50.762;7.000;2022-09-09T11:14:31;152969.63;;;26.05;39.40
14885;BME280;7534;50.762;7.000;2022-09-09T11:17:11;152845.03;;;25.58;39.10
14885;BME280;7534;50.762;7.000;2022-09-09T11:20:12;152978.91;;;26.09;38.92
14885;BME280;7534;50.762;7.000;2022-09-09T11:23:09;152847.75;;;25.59;38.76
14885;BME280;7534;50.762;7.000;2022-09-09T11:25:56;152815.88;;;25.46;39.09
14885;BME280;7534;50.762;7.000;2022-09-09T11:29:27;152883.50;;;25.72;38.63
14885;BME280;7534;50.762;7.000;2022-09-09T11:33:07;152818.53;;;25.47;40.46
14885;BME280;7534;50.762;7.000;2022-09-09T11:41:36;152770.88;;;25.29;40.82
14885;BME280;7534;50.762;7.000;2022-09-09T11:44:42;152807.97;;;25.43;39.67
14885;BME280;7534;50.762;7.000;2022-09-09T11:47:33;152965.63;;;26.04;39.45
14885;BME280;7534;50.762;7.000;2022-09-09T11:50:35;153091.56;;;26.52;37.45
14885;BME280;7534;50.762;7.000;2022-09-09T11:53:26;152972.28;;;26.06;36.98
14885;BME280;7534;50.762;7.000;2022-09-09T11:59:50;152953.72;;;25.99;37.18
14885;BME280;7534;50.762;7.000;2022-09-09T12:02:24;153012.00;;;26.21;37.72
14885;BME280;7534;50.762;7.000;2022-09-09T12:05:12;152839.72;;;25.56;37.62
14885;BME280;7534;50.762;7.000;2022-09-09T12:08:04;152761.59;;;25.26;38.31
14885;BME280;7534;50.762;7.000;2022-09-09T12:10:52;152635.75;;;24.78;39.18
14885;BME280;7534;50.762;7.000;2022-09-09T12:13:24;152713.91;;;25.07;39.93
14885;BME280;7534;50.762;7.000;2022-09-09T12:16:43;152935.19;;;25.92;39.59
14885;BME280;7534;50.762;7.000;2022-09-09T12:19:41;152803.97;;;25.42;38.56
14885;BME280;7534;50.762;7.000;2022-09-09T12:26:16;152765.59;;;25.27;37.87
14885;BME280;7534;50.762;7.000;2022-09-09T12:29:28;152719.22;;;25.09;39.31
14885;BME280;7534;50.762;7.000;2022-09-09T12:32:26;152919.28;;;25.86;39.04
14885;BME280;7534;50.762;7.000;2022-09-09T12:35:29;152753.63;;;25.23;38.27
14885;BME280;7534;50.762;7.000;2022-09-09T12:38:05;152753.63;;;25.23;39.34
14885;BME280;7534;50.762;7.000;2022-09-09T12:40:37;152706.00;;;25.04;39.79
14885;BME280;7534;50.762;7.000;2022-09-09T12:43:25;152694.06;;;25.00;39.84
14885;BME280;7534;50.762;7.000;2022-09-09T12:46:01;152586.78;;;24.59;39.49
14885;BME280;7534;50.762;7.000;2022-09-09T12:48:46;152596.06;;;24.62;39.80
14885;BME280;7534;50.762;7.000;2022-09-09T12:51:48;152692.72;;;24.99;39.88
14885;BME280;7534;50.762;7.000;2022-09-09T12:54:21;152532.53;;;24.38;41.94
14885;BME280;7534;50.762;7.000;2022-09-09T12:56:50;152625.16;;;24.73;41.02
14885;BME280;7534;50.762;7.000;2022-09-09T12:59:48;152382.97;;;23.81;41.49
14885;BME280;7534;50.762;7.000;2022-09-09T13:02:28;152390.88;;;23.84;43.48
14885;BME280;7534;50.762;7.000;2022-09-09T13:05:21;152237.44;;;23.25;43.20
14885;BME280;7534;50.762;7.000;2022-09-09T13:08:26;152185.84;;;23.05;48.64
14885;BME280;7534;50.762;7.000;2022-09-09T13:11:04;152278.41;;;23.41;48.22
14885;BME280;7534;50.762;7.000;2022-09-09T13:14:06;152244.00;;;23.28;46.57
14885;BME280;7534;50.762;7.000;2022-09-09T13:16:35;152373.69;;;23.77;46.65
14885;BME280;7534;50.762;7.000;2022-09-09T13:19:10;152510.03;;;24.29;43.96
14885;BME280;7534;50.762;7.000;2022-09-09T13:21:43;152483.50;;;24.19;43.75
14885;BME280;7534;50.762;7.000;2022-09-09T13:24:32;152609.28;;;24.67;43.58
14885;BME280;7534;50.762;7.000;2022-09-09T13:27:19;152589.44;;;24.60;43.80
14885;BME280;7534;50.762;7.000;2022-09-09T13:29:54;152622.53;;;24.73;43.38
14885;BME280;7534;50.762;7.000;2022-09-09T13:32:22;152740.41;;;25.18;44.33
14885;BME280;7534;50.762;7.000;2022-09-09T13:34:55;152715.25;;;25.08;44.21
14885;BME280;7534;50.762;7.000;2022-09-09T13:37:38;152855.72;;;25.62;43.06
14885;BME280;7534;50.762;7.000;2022-09-09T13:40:22;152845.03;;;25.58;41.71
14885;BME280;7534;50.762;7.000;2022-09-09T13:42:58;152643.72;;;24.81;42.28
14885;BME280;7534;50.762;7.000;2022-09-09T13:45:32;152560.28;;;24.49;43.30
14885;BME280;7534;50.762;7.000;2022-09-09T13:48:18;152560.28;;;24.49;43.57
14885;BME280;7534;50.762;7.000;2022-09-09T13:51:03;152565.59;;;24.51;44.55
14885;BME280;7534;50.762;7.000;2022-09-09T13:53:41;152573.56;;;24.54;44.84
14885;BME280;7534;50.762;7.000;2022-09-09T13:56:17;152544.41;;;24.43;45.52
14885;BME280;7534;50.762;7.000;2022-09-09T13:58:43;152377.66;;;23.79;46.23
14885;BME280;7534;50.762;7.000;2022-09-09T14:01:20;152361.78;;;23.73;47.10
14885;BME280;7534;50.762;7.000;2022-09-09T14:03:46;152393.50;;;23.85;46.63
14885;BME280;7534;50.762;7.000;2022-09-09T14:06:12;152401.47;;;23.88;46.77
14885;BME280;7534;50.762;7.000;2022-09-09T14:08:55;152394.84;;;23.85;48.03
14885;BME280;7534;50.762;7.000;2022-09-09T14:11:34;152373.69;;;23.77;46.86
14885;BME280;7534;50.762;7.000;2022-09-09T14:14:01;152707.31;;;25.05;45.39
14885;BME280;7534;50.762;7.000;2022-09-09T14:16:29;152729.78;;;25.14;45.33
14885;BME280;7534;50.762;7.000;2022-09-09T14:19:14;152807.97;;;25.43;46.41
14885;BME280;7534;50.762;7.000;2022-09-09T14:22:10;152788.09;;;25.36;44.42
14885;BME280;7534;50.762;7.000;2022-09-09T14:24:41;152789.41;;;25.36;43.96
14885;BME280;7534;50.762;7.000;2022-09-09T14:27:17;152731.13;;;25.14;43.57
14885;BME280;7534;50.762;7.000;2022-09-09T14:29:47;152749.69;;;25.21;42.15
14885;BME280;7534;50.762;7.000;2022-09-09T14:32:19;152733.78;;;25.15;42.49
14885;BME280;7534;50.762;7.000;2022-09-09T14:34:46;152723.22;;;25.11;44.13
14885;BME280;7534;50.762;7.000;2022-09-09T14:37:19;152780.13;;;25.33;43.27
14885;BME280;7534;50.762;7.000;2022-09-09T14:39:46;152931.19;;;25.91;42.88
14885;BME280;7534;50.762;7.000;2022-09-09T14:42:21;152819.84;;;25.48;41.65
14885;BME280;7534;50.762;7.000;2022-09-09T14:44:51;152931.19;;;25.91;41.86
14885;BME280;7534;50.762;7.000;2022-09-09T14:47:17;152747.03;;;25.20;42.56
14885;BME280;7534;50.762;7.000;2022-09-09T14:49:57;152780.13;;;25.33;43.74
14885;BME280;7534;50.762;7.000;2022-09-09T14:52:32;152698.03;;;25.01;43.21
14885;BME280;7534;50.762;7.000;2022-09-09T14:55:01;152617.25;;;24.70;43.31
14885;BME280;7534;50.762;7.000;2022-09-09T14:57:27;152551.03;;;24.45;44.82
14885;BME280;7534;50.762;7.000;2022-09-09T14:59:55;152487.53;;;24.21;45.24
14885;BME280;7534;50.762;7.000;2022-09-09T15:02:28;152459.69;;;24.10;45.08
14885;BME280;7534;50.762;7.000;2022-09-09T15:05:03;152492.84;;;24.23;45.52
14885;BME280;7534;50.762;7.000;2022-09-09T15:07:35;152445.13;;;24.05;46.70
14885;BME280;7534;50.762;7.000;2022-09-09T15:13:09;152390.88;;;23.84;47.50
14885;BME280;7534;50.762;7.000;2022-09-09T15:15:37;152294.28;;;23.47;47.37
14885;BME280;7534;50.762;7.000;2022-09-09T15:18:16;152140.88;;;22.88;48.98
14885;BME280;7534;50.762;7.000;2022-09-09T15:20:47;152184.50;;;23.05;49.37
14885;BME280;7534;50.762;7.000;2022-09-09T15:23:14;152240.06;;;23.26;50.30
14885;BME280;7534;50.762;7.000;2022-09-09T15:25:53;152118.41;;;22.79;54.19
14885;BME280;7534;50.762;7.000;2022-09-09T15:28:20;151961.13;;;22.19;60.67
14885;BME280;7534;50.762;7.000;2022-09-09T15:30:51;151846.13;;;21.75;68.38
14885;BME280;7534;50.762;7.000;2022-09-09T15:33:21;151678.38;;;21.11;74.46
14885;BME280;7534;50.762;7.000;2022-09-09T15:35:47;151509.44;;;20.46;78.19
14885;BME280;7534;50.762;7.000;2022-09-09T15:38:13;151333.91;;;19.78;80.84
14885;BME280;7534;50.762;7.000;2022-09-09T15:40:42;151215.22;;;19.33;86.17
14885;BME280;7534;50.762;7.000;2022-09-09T15:43:09;151163.84;;;19.13;87.63
14885;BME280;7534;50.762;7.000;2022-09-09T15:45:36;151084.72;;;18.83;90.23
14885;BME280;7534;50.762;7.000;2022-09-09T15:48:03;151078.16;;;18.80;92.27
14885;BME280;7534;50.762;7.000;2022-09-09T15:50:30;151080.75;;;18.81;93.57
14885;BME280;7534;50.762;7.000;2022-09-09T15:53:01;151071.56;;;18.78;95.32
14885;BME280;7534;50.762;7.000;2022-09-09T15:55:28;151018.84;;;18.57;95.62
14885;BME280;7534;50.762;7.000;2022-09-09T15:57:54;151022.81;;;18.59;96.41
14885;BME280;7534;50.762;7.000;2022-09-09T16:00:20;151038.59;;;18.65;97.95
14885;BME280;7534;50.762;7.000;2022-09-09T16:02:47;151013.56;;;18.55;99.20